Time;durP1;ratioP1;P1;durP2;ratioP2;P2;SDS_P1;SDS_P2;PMS_P1;PMS_P2;Temp;Humidity;BMP_temperature;BMP_pressure;BME280_temperature;BME280_humidity;BME280_pressure;Samples;Min_cycle;Max_cycle;Signal;HPM_P1;HPM_P2
2021/06/20 00:01:38;;;;;;;2.20;2.00;;;;;;;;;;5072645;28;20458;-89
2021/06/20 00:04:09;;;;;;;3.50;2.27;;;;;;;;;;5074986;28;20432;-85
2021/06/20 00:06:47;;;;;;;3.50;2.47;;;21.00;99.90;;;;;;5078831;28;20555;-85
2021/06/20 00:09:15;;;;;;;5.87;2.40;;;;;;;;;;5077186;28;20435;-87
2021/06/20 00:11:45;;;;;;;2.70;2.10;;;21.10;99.90;;;;;;5076118;28;20447;-86
2021/06/20 00:14:14;;;;;;;6.93;3.20;;;20.60;99.90;;;;;;5060454;28;20436;-88
2021/06/20 00:16:42;;;;;;;3.90;2.73;;;21.10;99.90;;;;;;5081258;28;20463;-87
2021/06/20 00:19:09;;;;;;;5.73;2.80;;;;;;;;;;5093473;28;20936;-90
2021/06/20 00:21:41;;;;;;;6.70;3.10;;;;;;;;;;5093946;28;20482;-85
2021/06/20 00:24:08;;;;;;;3.20;2.50;;;;;;;;;;5097988;28;20525;-86
2021/06/20 00:26:36;;;;;;;4.57;2.40;;;;;;;;;;5093141;28;20556;-86
2021/06/20 00:29:03;;;;;;;5.23;2.97;;;;;;;;;;5095675;28;20550;-86
2021/06/20 00:31:30;;;;;;;5.50;3.10;;;;;;;;;;5078761;28;20442;-89
2021/06/20 00:33:57;;;;;;;4.10;2.83;;;;;;;;;;5094553;28;20432;-89
2021/06/20 00:36:24;;;;;;;3.60;2.73;;;;;;;;;;5086613;28;20473;-87
2021/06/20 00:38:53;;;;;;;4.43;3.03;;;;;;;;;;5078477;28;20425;-88
2021/06/20 00:41:20;;;;;;;6.17;3.90;;;;;;;;;;5071510;28;20578;-87
2021/06/20 00:43:47;;;;;;;5.10;3.53;;;;;;;;;;5071105;28;20440;-88
2021/06/20 00:46:14;;;;;;;6.17;3.40;;;;;;;;;;5071134;28;20890;-86
2021/06/20 00:48:42;;;;;;;5.67;3.57;;;;;;;;;;5075275;28;20454;-88
2021/06/20 00:51:09;;;;;;;7.83;3.70;;;;;;;;;;5093517;28;20447;-87
2021/06/20 00:53:36;;;;;;;5.40;3.63;;;;;;;;;;5093765;28;20537;-90
2021/06/20 00:56:05;;;;;;;6.33;4.13;;;;;;;;;;5093338;28;20451;-85
2021/06/20 00:58:32;;;;;;;5.90;4.10;;;;;;;;;;5085683;28;20444;-88
2021/06/20 01:00:59;;;;;;;7.37;4.30;;;;;;;;;;5077360;28;20431;-88
2021/06/20 01:03:27;;;;;;;6.53;4.87;;;;;;;;;;5070649;28;20432;-88
2021/06/20 01:05:54;;;;;;;7.60;4.60;;;;;;;;;;5070601;28;20963;-88
2021/06/20 01:08:21;;;;;;;7.27;4.30;;;;;;;;;;5070747;28;20444;-87
2021/06/20 01:10:48;;;;;;;5.63;4.40;;;;;;;;;;5075372;28;20907;-90
2021/06/20 01:13:18;;;;;;;6.03;4.73;;;;;;;;;;5075515;28;20450;-86
2021/06/20 01:15:46;;;;;;;6.17;4.67;;;;;;;;;;5093089;28;20469;-86
2021/06/20 01:18:14;;;;;;;7.23;4.30;;;;;;;;;;5092938;28;20412;-88
2021/06/20 01:20:41;;;;;;;8.33;4.87;;;;;;;;;;5084624;28;20448;-88
2021/06/20 01:23:09;;;;;;;8.80;4.43;;;;;;;;;;5076989;28;20493;-87
2021/06/20 01:25:38;;;;;;;6.67;4.73;;;;;;;;;;5090215;28;20819;-90
2021/06/20 01:28:07;;;;;;;5.40;4.33;;;;;;;;;;5090658;28;21085;-87
2021/06/20 01:30:35;;;;;;;7.27;4.80;;;;;;;;;;5090593;28;20438;-84
2021/06/20 01:33:04;;;;;;;5.10;3.87;;;;;;;;;;5090926;28;20527;-84
2021/06/20 01:35:31;;;;;;;6.60;4.03;;;;;;;;;;5092749;28;20467;-88
2021/06/20 01:38:01;;;;;;;4.83;3.97;;;;;;;;;;5075066;28;20448;-90
2021/06/20 01:40:30;;;;;;;6.37;4.40;;;;;;;;;;5092644;28;20454;-89
2021/06/20 01:42:57;;;;;;;8.20;4.70;;;;;;;;;;5082570;28;20578;-87
2021/06/20 01:45:25;;;;;;;4.93;4.50;;;;;;;;;;5077868;28;20471;-88
2021/06/20 01:47:53;;;;;;;9.00;4.90;;;;;;;;;;5071909;28;20804;-86
2021/06/20 01:50:21;;;;;;;6.83;5.60;;;;;;;;;;5072222;28;20958;-86
2021/06/20 01:52:48;;;;;;;7.87;5.03;;;;;;;;;;5090503;28;20462;-87
2021/06/20 01:55:16;;;;;;;5.13;4.60;;;;;;;;;;5072859;28;20446;-88
2021/06/20 01:57:45;;;;;;;6.60;5.70;;;;;;;;;;5074576;28;20464;-90
2021/06/20 02:00:14;;;;;;;7.73;4.67;;;;;;;;;;5092085;28;20443;-88
2021/06/20 02:02:41;;;;;;;8.73;5.20;;;;;;;;;;5074389;28;20498;-89
2021/06/20 02:05:09;;;;;;;10.63;5.63;;;;;;;;;;5081211;28;20448;-88
2021/06/20 02:07:37;;;;;;;12.37;5.90;;;;;;;;;;5075423;28;20809;-89
2021/06/20 02:10:06;;;;;;;11.80;6.10;;;;;;;;;;5069238;28;20501;-88
2021/06/20 02:12:33;;;;;;;10.23;5.30;;;;;;;;;;5069245;28;20436;-87
2021/06/20 02:15:01;;;;;;;12.47;5.40;;;;;;;;;;5051943;28;20464;-87
2021/06/20 02:17:29;;;;;;;10.40;5.80;;;;;;;;;;5078812;28;20454;-86
2021/06/20 02:19:58;;;;;;;12.70;5.60;;;;;;;;;;5074079;28;20442;-86
2021/06/20 02:22:25;;;;;;;16.40;5.57;;;;;;;;;;5091768;28;20478;-88
2021/06/20 02:24:53;;;;;;;15.10;6.13;;;;;;;;;;5073746;28;20435;-89
2021/06/20 02:27:21;;;;;;;13.50;6.30;;;;;;;;;;5080130;28;20448;-87
2021/06/20 02:29:49;;;;;;;13.30;6.13;;;;;;;;;;5061216;28;20796;-86
2021/06/20 02:32:17;;;;;;;10.73;6.10;;;;;;;;;;5088940;28;20501;-86
2021/06/20 02:34:44;;;;;;;10.63;5.47;;;;;;;;;;5089407;28;20443;-87
2021/06/20 02:37:12;;;;;;;8.23;5.87;;;;;;;;;;5089804;28;20439;-83
2021/06/20 02:39:40;;;;;;;10.13;6.83;;;;;;;;;;5090232;28;20943;-88
2021/06/20 02:42:09;;;;;;;11.23;7.77;;;;;;;;;;5073662;28;20479;-85
2021/06/20 02:44:36;;;;;;;13.53;7.27;;;;;;;;;;5091530;28;20450;-86
2021/06/20 02:47:05;;;;;;;11.33;7.83;;;;;;;;;;5073765;28;20440;-86
2021/06/20 02:49:34;;;;;;;14.10;8.20;;;;;;;;;;5078864;28;20460;-87
2021/06/20 02:52:01;;;;;;;11.60;8.13;;;;;;;;;;5073858;28;20430;-84
2021/06/20 02:54:29;;;;;;;11.03;8.60;;;;;;;;;;5069077;28;20440;-89
2021/06/20 02:56:57;;;;;;;13.97;7.77;;;;;;;;;;5069048;28;20457;-89
2021/06/20 02:59:24;;;;;;;12.63;7.40;;;;;;;;;;5069175;28;20527;-87
2021/06/20 03:01:51;;;;;;;12.20;7.50;;;;;;;;;;5080961;28;20455;-89
2021/06/20 03:04:18;;;;;;;14.20;7.83;;;;;;;;;;5091502;28;20458;-90
2021/06/20 03:06:47;;;;;;;13.90;8.70;;;;;;;;;;5091181;28;20455;-85
2021/06/20 03:09:14;;;;;;;10.67;7.30;;;;;;;;;;5091729;28;20453;-85
2021/06/20 03:11:42;;;;;;;10.93;7.60;;;;;;;;;;5078283;28;20429;-87
2021/06/20 03:14:10;;;;;;;13.17;7.73;;;;;;;;;;5072964;28;20436;-88
2021/06/20 03:16:37;;;;;;;9.90;6.70;;;;;;;;;;5051204;28;20471;-83
2021/06/20 03:19:05;;;;;;;13.13;7.43;;;;;;;;;;5068523;28;20448;-85
2021/06/20 03:21:32;;;;;;;14.27;6.53;;;;;;;;;;5068494;28;20479;-83
2021/06/20 03:24:01;;;;;;;13.00;7.10;;;;;;;;;;5081416;28;20848;-85
2021/06/20 03:26:28;;;;;;;12.83;6.70;;;;;;;;;;5091043;28;20490;-83
2021/06/20 03:28:55;;;;;;;9.80;5.90;;;;;;;;;;5076271;28;20431;-88
2021/06/20 03:31:22;;;;;;;8.63;6.30;;;;;;;;;;5093890;28;20447;-85
2021/06/20 03:33:50;;;;;;;12.47;6.83;;;;;;;;;;5079879;28;20443;-86
2021/06/20 03:36:17;;;;;;;8.90;6.07;;;;;;;;;;5081951;28;20550;-85
2021/06/20 03:38:44;;;;;;;7.90;7.10;;;;;;;;;;5091699;28;20446;-85
2021/06/20 03:41:13;;;;;;;12.80;6.50;;;;;;;;;;5091492;28;20443;-85
2021/06/20 03:43:41;;;;;;;12.27;6.30;;;;;;;;;;5073548;28;21011;-84
2021/06/20 03:46:09;;;;;;;7.80;6.40;;;;;;;;;;5092495;28;20516;-89
2021/06/20 03:48:36;;;;;;;6.60;5.47;;;;;;;;;;5093785;28;20435;-85
2021/06/20 03:51:03;;;;;;;8.30;5.83;;;;;;;;;;5093639;28;20436;-86
2021/06/20 03:53:30;;;;;;;5.70;5.03;;;;;;;;;;5093707;28;20435;-84
2021/06/20 03:55:58;;;;;;;9.63;6.73;;;;;;;;;;5078989;28;20573;-85
2021/06/20 03:58:26;;;;;;;11.77;5.80;;;;;;;;;;5074707;28;20439;-84
2021/06/20 04:00:53;;;;;;;5.90;5.27;;;;;;;;;;5070947;28;20527;-86
2021/06/20 04:03:20;;;;;;;8.87;5.37;;;;;;;;;;5071097;28;20482;-88
2021/06/20 04:05:48;;;;;;;5.30;4.80;;;;;;;;;;5071032;28;20468;-83
2021/06/20 04:08:15;;;;;;;7.20;4.90;;;;;;;;;;5085187;28;20454;-86
2021/06/20 04:10:42;;;;;;;5.23;4.73;;;;;;;;;;5093401;28;20445;-84
2021/06/20 04:13:09;;;;;;;6.90;5.20;;;;;;;;;;5093238;28;20439;-86
2021/06/20 04:15:38;;;;;;;6.70;4.83;;;;;;;;;;5092883;28;20463;-83
2021/06/20 04:18:05;;;;;;;6.53;4.97;;;;;;;;;;5070316;28;20455;-84
2021/06/20 04:20:32;;;;;;;9.10;4.30;;;;;;;;;;5073182;28;20428;-86
2021/06/20 04:23:00;;;;;;;5.50;4.93;;;;;;;;;;5070761;28;20487;-87
2021/06/20 04:25:29;;;;;;;6.70;5.40;;;;;;;;;;5067490;28;84911;-84
2021/06/20 04:27:56;;;;;;;10.50;5.80;;;;;;;;;;5072088;28;20455;-86
2021/06/20 04:30:24;;;;;;;7.70;5.90;;;;;;;;;;5086916;28;20454;-86
2021/06/20 04:32:53;;;;;;;6.13;5.60;;;;;;;;;;5094435;28;20448;-89
2021/06/20 04:35:21;;;;;;;6.83;5.93;;;;;;;;;;5094272;28;20459;-83
2021/06/20 04:37:49;;;;;;;9.27;6.20;;;;;;;;;;5075894;28;20842;-83
2021/06/20 04:40:19;;;;;;;6.53;5.87;;;;;;;;;;5078248;28;20433;-84
2021/06/20 04:42:54;;;;;;;6.57;5.27;;;;;;;;;;5074756;28;20490;-83
2021/06/20 04:45:21;;;;;;;12.80;6.70;;;;;;;;;;5055174;28;20463;-84
2021/06/20 04:47:49;;;;;;;8.77;6.50;;;;;;;;;;5053887;28;20797;-84
2021/06/20 04:50:17;;;;;;;7.30;5.63;;;;;;;;;;5071713;28;20440;-86
2021/06/20 04:52:45;;;;;;;7.47;5.63;;;;;;;;;;5089287;28;20807;-84
2021/06/20 04:55:13;;;;;;;6.40;5.50;;;;;;;;;;5093491;28;20960;-83
2021/06/20 04:57:40;;;;;;;13.40;10.27;;;;;;;;;;5076054;28;20443;-83
2021/06/20 05:00:08;;;;;;;17.43;12.40;;;;;;;;;;5074598;28;20477;-82
2021/06/20 05:02:35;;;;;;;18.40;13.30;;;;;;;;;;5078007;28;20999;-85
2021/06/20 05:05:03;;;;;;;16.60;12.57;;;;;;;;;;5085236;28;20986;-83
2021/06/20 05:07:31;;;;;;;20.00;14.40;;;;;;;;;;5091690;28;21115;-83
2021/06/20 05:09:59;;;;;;;12.80;9.87;;;;;;;;;;5091422;28;20439;-85
2021/06/20 05:12:26;;;;;;;8.93;7.60;;;;;;;;;;5091449;28;20438;-86
2021/06/20 05:14:53;;;;;;;8.30;5.23;;;;;;;;;;5092645;28;20465;-83
2021/06/20 05:17:20;;;;;;;6.37;5.77;;;;;;;;;;5093538;28;20439;-85
2021/06/20 05:19:48;;;;;;;6.87;5.73;;;;;;;;;;5093427;28;20443;-84
2021/06/20 05:22:15;;;;;;;10.77;7.07;;;;;;;;;;5091272;28;20440;-85
2021/06/20 05:24:43;;;;;;;8.43;5.90;;;;;;;;;;5077339;28;20443;-82
2021/06/20 05:27:11;;;;;;;4.60;4.17;;;;;;;;;;5072018;28;20466;-83
2021/06/20 05:29:38;;;;;;;5.07;4.40;;;;;;;;;;5052274;28;20447;-82
2021/06/20 05:32:06;;;;;;;4.93;3.60;;;;;;;;;;5063559;28;20435;-83
2021/06/20 05:34:33;;;;;;;5.40;2.87;;;;;;;;;;5083708;28;20794;-84
2021/06/20 05:37:00;;;;;;;5.10;3.03;;;;;;;;;;5078514;28;20837;-83
2021/06/20 05:39:28;;;;;;;3.90;3.10;;;;;;;;;;5080048;28;20431;-82
2021/06/20 05:41:59;;;;;;;4.30;3.10;;;;;;;;;;5090572;28;20439;-83
2021/06/20 05:44:26;;;;;;;4.20;3.23;;;;;;;;;;5090581;28;20509;-83
2021/06/20 05:46:53;;;;;;;4.40;4.00;;;;;;;;;;5083743;28;20464;-83
2021/06/20 05:49:20;;;;;;;4.60;3.80;;;;;;;;;;5081181;28;20463;-85
2021/06/20 05:51:47;;;;;;;4.20;3.40;;;;;;;;;;5092045;28;20447;-85
2021/06/20 05:54:14;;;;;;;3.90;3.03;;;;;;;;;;5092657;28;20793;-89
2021/06/20 05:56:41;;;;;;;5.13;3.00;;;;;;;;;;5092486;28;20463;-85
2021/06/20 05:59:10;;;;;;;3.50;3.20;;;;;;;;;;5080425;28;20428;-85
2021/06/20 06:01:37;;;;;;;4.17;3.63;;;;;;;;;;5075173;28;20435;-90
2021/06/20 06:04:05;;;;;;;3.83;2.73;;;;;;;;;;5068973;28;20476;-89
2021/06/20 06:06:33;;;;;;;3.33;2.50;;;;;;;;;;5069420;28;20463;-85
2021/06/20 06:09:00;;;;;;;2.80;2.60;;;;;;;;;;5051726;28;20532;-88
2021/06/20 06:11:27;;;;;;;4.13;2.83;;;;;;;;;;5080769;28;20454;-89
2021/06/20 06:13:55;;;;;;;3.70;2.87;;;;;;;;;;5091507;28;20439;-90
2021/06/20 06:16:23;;;;;;;3.23;2.93;;;;;;;;;;5092161;28;20491;-87
2021/06/20 06:18:50;;;;;;;5.27;2.63;;;;;;;;;;5077670;28;20446;-83
2021/06/20 06:21:18;;;;;;;6.13;2.90;;;;;;;;;;5074716;28;20436;-86
2021/06/20 06:23:45;;;;;;;6.70;2.83;;;;;;;;;;5075982;28;20479;-85
2021/06/20 06:26:12;;;;;;;3.10;2.90;;;;;;;;;;5069047;28;20953;-82
2021/06/20 06:28:39;;;;;;;5.63;3.03;;;;;;;;;;5069054;28;20451;-83
2021/06/20 06:31:07;;;;;;;3.73;3.20;;;;;;;;;;5083894;28;20465;-83
2021/06/20 06:33:36;;;;;;;4.53;3.17;;;;;;;;;;5090664;28;20542;-85
2021/06/20 06:36:03;;;;;;;3.23;2.60;;;;;;;;;;5091895;28;20470;-84
2021/06/20 06:38:30;;;;;;;3.40;2.60;;;;;;;;;;5091856;28;20920;-83
2021/06/20 06:40:57;;;;;;;3.47;2.97;;;;;;;;;;5081713;28;20444;-85
2021/06/20 06:43:25;;;;;;;2.97;2.30;;;;;;;;;;5082065;28;20480;-84
2021/06/20 06:45:52;;;;;;;4.60;2.20;;;;;;;;;;5075706;28;20544;-82
2021/06/20 06:48:19;;;;;;;2.63;2.10;;;;;;;;;;5089039;28;20447;-86
2021/06/20 06:50:48;;;;;;;3.33;2.57;;;;;;;;;;5075223;28;20793;-82
2021/06/20 06:53:15;;;;;;;2.40;2.10;;;;;;;;;;5069209;28;20538;-83
2021/06/20 06:55:42;;;;;;;2.97;2.40;;;;;;;;;;5075123;28;20875;-86
2021/06/20 06:58:09;;;;;;;3.57;2.07;;;;;;;;;;5091754;28;20435;-85
2021/06/20 07:01:00;;;;;;;3.10;1.77;;;;;;;;;;5091336;28;21152;-82
2021/06/20 07:09:14;;;;;;;2.50;2.13;;;;;;;;;;5060602;28;20866;-81
2021/06/20 07:11:41;;;;;;;4.30;2.30;;;;;;;;;;5089142;28;20439;-85
2021/06/20 07:14:08;;;;;;;1.90;1.80;;;;;;;;;;5074093;28;20527;-83
2021/06/20 07:16:36;;;;;;;2.70;1.70;;;;;;;;;;5068609;28;20456;-82
2021/06/20 07:19:03;;;;;;;1.97;1.87;;;;;;;;;;5082239;28;20459;-84
2021/06/20 07:21:31;;;;;;;1.83;1.73;;;;;;;;;;5091610;28;20458;-84
2021/06/20 07:24:00;;;;;;;2.90;1.87;;;;;;;;;;5090827;28;20486;-84
2021/06/20 07:26:27;;;;;;;1.93;1.70;;;;;;;;;;5091049;28;20485;-86
2021/06/20 07:28:56;;;;;;;3.80;1.50;;;;;;;;;;5076607;28;20425;-85
2021/06/20 07:31:23;;;;;;;4.30;1.60;;;;;;;;;;5070667;28;20525;-84
2021/06/20 07:33:50;;;;;;;2.10;1.90;;;;;;;;;;5051442;28;20993;-84
2021/06/20 07:36:18;;;;;;;2.20;2.00;;;;;;;;;;5087048;28;20975;-82
2021/06/20 07:38:46;;;;;;;1.77;1.67;;;;;;;;;;5088646;28;20530;-82
2021/06/20 07:41:14;;;;;;;2.27;1.80;;;;;;;;;;5065890;28;20928;-85
2021/06/20 07:43:41;;;;;;;2.37;1.67;;;;;;;;;;5075011;28;20479;-84
2021/06/20 07:46:08;;;;;;;2.23;1.50;;;;;;;;;;5068066;28;20457;-84
2021/06/20 07:48:36;;;;;;;1.80;1.70;;;;;;;;;;5068820;28;20441;-83
2021/06/20 07:51:03;;;;;;;2.90;1.93;;;;;;;;;;5068660;28;20445;-85
2021/06/20 07:53:32;;;;;;;2.13;1.80;;;;;;;;;;5071423;28;20443;-83
2021/06/20 07:56:01;;;;;;;5.00;1.87;;;;;;;;;;5070712;28;20447;-82
2021/06/20 07:58:31;;;;;;;2.33;1.40;;;;;;;;;;5089191;28;20799;-83
2021/06/20 08:00:58;;;;;;;1.90;1.53;;;;;;;;;;5068692;28;20444;-84
2021/06/20 08:03:46;;;;;;;1.90;1.77;;;;;;;;;;5071525;28;20442;-85
2021/06/20 08:06:13;;;;;;;2.00;1.80;;;;;;;;;;5079213;28;20466;-85
2021/06/20 08:08:40;;;;;;;1.87;1.57;;;;;;;;;;5089171;28;20448;-85
2021/06/20 08:11:09;;;;;;;1.50;1.40;;;;;;;;;;5088978;28;20435;-85
2021/06/20 08:13:36;;;;;;;2.20;1.70;;;;;;;;;;5091998;28;20449;-83
2021/06/20 08:16:03;;;;;;;2.53;1.60;;;;;;;;;;5094355;28;20485;-82
2021/06/20 08:18:30;;;;;;;2.80;2.03;;;;;;;;;;5085407;28;20456;-81
2021/06/20 08:20:57;;;;;;;1.87;1.77;;;;;;;;;;5075019;28;20448;-83
2021/06/20 08:23:25;;;;;;;2.27;1.60;;;;;;;;;;5075127;28;20440;-85
2021/06/20 08:25:52;;;;;;;2.17;1.60;;;;;;;;;;5078171;28;20485;-81
2021/06/20 08:28:22;;;;;;;3.10;1.80;;;;;;;;;;5080558;28;20956;-82
2021/06/20 08:30:50;;;;;;;1.83;1.70;;;;;;;;;;5072599;28;20561;-84
2021/06/20 08:33:17;;;;;;;2.43;1.73;;;;;;;;;;5054940;28;20444;-86
2021/06/20 08:35:44;;;;;;;1.80;1.70;;;;;;;;;;5055352;28;20542;-84
2021/06/20 08:38:11;;;;;;;2.50;1.67;;;;;;;;;;5080416;28;20451;-82
2021/06/20 08:40:41;;;;;;;3.43;1.50;;;;;;;;;;5095312;28;20443;-84
2021/06/20 08:43:08;;;;;;;1.80;1.70;;;;;;;;;;5095333;28;20500;-84
2021/06/20 08:45:37;;;;;;;3.60;1.63;;;;;;;;;;5090042;28;20843;-84
2021/06/20 08:48:05;;;;;;;2.37;1.50;;;;;;;;;;5077731;28;20439;-80
2021/06/20 08:50:32;;;;;;;4.57;1.50;;;;;;;;;;5080214;28;20451;-82
2021/06/20 08:52:59;;;;;;;2.83;1.43;;;;;;;;;;5072562;28;20459;-84
2021/06/20 08:55:26;;;;;;;1.97;1.70;;;;;;;;;;5073317;28;20471;-84
2021/06/20 08:58:00;;;;;;;2.27;1.57;;;;;;;;;;5072293;28;20440;-81
2021/06/20 09:00:27;;;;;;;2.13;1.43;;;;;;;;;;5077958;28;20975;-84
2021/06/20 09:03:00;;;;;;;2.40;1.60;;;;;;;;;;5076863;28;20776;-82
2021/06/20 09:05:28;;;;;;;1.70;1.60;;;;;;;;;;5076875;28;20533;-81
2021/06/20 09:07:55;;;;;;;2.80;1.60;;;;;;;;;;5076912;28;20444;-83
2021/06/20 09:10:23;;;;;;;4.30;1.67;;;;;;;;;;5087108;28;20436;-84
2021/06/20 09:12:52;;;;;;;1.87;1.43;;;;;;;;;;5080131;28;20453;-85
2021/06/20 09:15:20;;;;;;;1.57;1.47;;;;;;;;;;5071685;28;20456;-82
2021/06/20 09:17:52;;;;;;;1.67;1.57;;;;;;;;;;5054535;28;20476;-83
2021/06/20 09:20:30;;;;;;;2.23;1.30;;;;;;;;;;5054577;28;20538;-84
2021/06/20 09:22:58;;;;;;;2.70;1.80;;;;;;;;;;5062407;28;20447;-84
2021/06/20 09:25:26;;;;;;;1.77;1.40;;;;;;;;;;5092776;28;21021;-85
2021/06/20 09:27:54;;;;;;;2.20;1.50;;;;;;;;;;5094107;28;20517;-85
2021/06/20 09:30:22;;;;;;;2.00;1.63;;;;;;;;;;5094377;28;20465;-83
2021/06/20 09:32:54;;;;;;;1.53;1.43;;;;;;;;;;5084582;28;20465;-84
2021/06/20 09:35:23;;;;;;;2.70;1.70;;;;;;;;;;5078320;28;20452;-84
2021/06/20 09:37:51;;;;;;;2.17;1.83;;;;;;;;;;5071250;28;20448;-84
2021/06/20 09:40:18;;;;;;;2.43;1.60;;;;;;;;;;5071482;28;20444;-82
2021/06/20 09:42:45;;;;;;;2.23;2.00;;;;;;;;;;5071929;28;20440;-84
2021/06/20 09:45:13;;;;;;;2.13;1.70;;;;;;;;;;5081406;28;20502;-85
2021/06/20 09:47:41;;;;;;;1.67;1.57;;;;;;;;;;5093926;28;20446;-83
2021/06/20 09:50:10;;;;;;;1.83;1.73;;;;;;;;;;5093844;28;20531;-84
2021/06/20 09:52:38;;;;;;;1.90;1.80;;;;;;;;;;5075901;28;20439;-84
2021/06/20 09:55:10;;;;;;;2.23;2.03;;;;;;;;;;5065593;28;20546;-84
2021/06/20 09:57:41;;;;;;;2.90;1.97;;;;;;;;;;5065842;28;20819;-85
2021/06/20 10:00:08;;;;;;;2.27;1.80;;;;;;;;;;5073881;28;20443;-81
2021/06/20 10:02:38;;;;;;;4.40;1.87;;;;;;;;;;5091533;28;20443;-84
2021/06/20 10:05:06;;;;;;;3.07;1.60;;;;;;;;;;5091472;28;20471;-81
2021/06/20 10:07:34;;;;;;;1.63;1.53;;;;;;;;;;5092344;28;20443;-83
2021/06/20 10:10:03;;;;;;;1.80;1.70;;;;;;;;;;5093601;28;20811;-85
2021/06/20 10:12:30;;;;;;;2.10;1.90;;;;;;;;;;5093750;28;20457;-84
2021/06/20 10:14:58;;;;;;;2.20;1.50;;;;;;;;;;5093387;28;20462;-85
2021/06/20 10:17:29;;;;;;;2.50;2.30;;;;;;;;;;5062757;28;20439;-83
2021/06/20 10:19:57;;;;;;;1.90;1.80;;;;;;;;;;5075450;28;20506;-84
2021/06/20 10:22:24;;;;;;;3.13;1.70;;;;;;;;;;5071091;28;20448;-84
2021/06/20 10:24:53;;;;;;;2.87;1.80;;;;;;;;;;5070581;28;20480;-86
2021/06/20 10:27:30;;;;;;;2.37;2.10;;;;;;;;;;5070832;28;20452;-86
2021/06/20 10:29:59;;;;;;;1.70;1.60;;;;;;;;;;5086662;28;20461;-82
2021/06/20 10:32:27;;;;;;;2.00;1.80;;;;;;;;;;5060967;28;20455;-82
2021/06/20 10:34:57;;;;;;;1.67;1.57;;;;;;;;;;5060971;28;20637;-88
2021/06/20 10:37:25;;;;;;;2.77;1.77;;;;;;;;;;5070154;28;21009;-83
2021/06/20 10:39:53;;;;;;;2.23;2.03;;;;;;;;;;5075833;28;20443;-84
2021/06/20 10:42:37;;;;;;;2.50;1.77;;;;;;;;;;5073988;28;20465;-87
2021/06/20 10:45:11;;;;;;;2.33;1.83;;;;;;;;;;5091332;28;20470;-83
2021/06/20 10:47:39;;;;;;;2.13;1.83;;;;;;;;;;5093666;28;20435;-83
2021/06/20 10:50:08;;;;;;;4.63;1.80;;;;;;;;;;5091503;28;20439;-86
2021/06/20 10:52:35;;;;;;;2.00;1.80;;;;;;;;;;5073878;28;20440;-81
2021/06/20 10:55:05;;;;;;;1.87;1.67;;;;;;;;;;5059328;28;20456;-84
2021/06/20 10:57:34;;;;;;;2.80;2.10;;;;;;;;;;5081304;28;20427;-81
2021/06/20 11:00:01;;;;;;;4.10;1.80;;;;;;;;;;5088689;28;20439;-83
2021/06/20 11:02:35;;;;;;;8.17;2.17;;;;;;;;;;5090835;28;20435;-84
2021/06/20 11:05:03;;;;;;;2.17;1.97;;;;;;;;;;5085119;28;20479;-82
2021/06/20 11:07:31;;;;;;;2.10;1.80;;;;;;;;;;5090227;28;20805;-81
2021/06/20 11:09:58;;;;;;;2.50;1.67;;;;;;;;;;5074177;28;20483;-82
2021/06/20 11:12:26;;;;;;;1.90;1.70;;;;;;;;;;5092575;28;21029;-85
2021/06/20 11:14:56;;;;;;;2.57;1.60;;;;;;;;;;5092551;28;20449;-84
2021/06/20 11:17:33;;;;;;;1.90;1.80;;;;;;;;;;5089274;28;20929;-85
2021/06/20 11:20:11;;;;;;;4.20;1.80;;;;;;;;;;5061923;28;20443;-81
2021/06/20 11:22:38;;;;;;;1.80;1.70;;;;;;;;;;5070176;28;21019;-86
2021/06/20 11:25:05;;;;;;;2.27;1.90;;;;;;;;;;5081865;28;20502;-80
2021/06/20 11:27:33;;;;;;;1.60;1.50;;;;;;;;;;5081531;28;20435;-83
2021/06/20 11:30:02;;;;;;;1.93;1.63;;;;;;;;;;5083684;28;21048;-84
2021/06/20 11:32:30;;;;;;;2.50;1.60;;;;;;;;;;5085845;28;20448;-84
2021/06/20 11:35:01;;;;;;;1.90;1.70;;;;;;;;;;5087825;28;20528;-83
2021/06/20 11:37:30;;;;;;;2.37;2.17;;;;;;;;;;5092263;28;20462;-84
2021/06/20 11:39:58;;;;;;;2.50;1.70;;;;;;;;;;5070063;28;20439;-84
2021/06/20 11:42:26;;;;;;;2.10;1.90;;;;;;;;;;5077758;28;20534;-83
2021/06/20 11:44:54;;;;;;;2.83;1.73;;;;;;;;;;5087587;28;20982;-86
2021/06/20 11:47:28;;;;;;;1.90;1.80;;;;;;;;;;5090416;28;20449;-86
2021/06/20 11:49:55;;;;;;;2.07;1.80;;;;;;;;;;5094259;28;20443;-84
2021/06/20 11:52:23;;;;;;;1.70;1.60;;;;;;;;;;5094368;28;20463;-83
2021/06/20 11:55:04;;;;;;;1.70;1.60;;;;;;;;;;5096067;28;20466;-83
2021/06/20 11:57:32;;;;;;;2.40;1.63;;;;;;;;;;5095973;28;20447;-80
2021/06/20 12:00:08;;;;;;;1.63;1.53;;;;;;;;;;5077978;28;20442;-85
2021/06/20 12:02:36;;;;;;;1.63;1.53;;;;;;;;;;5070803;28;20442;-82
2021/06/20 12:05:04;;;;;;;1.50;1.40;;;;;;;;;;5081177;28;20511;-86
2021/06/20 12:07:32;;;;;;;1.60;1.50;;;;;;;;;;5073219;28;20448;-87
2021/06/20 12:09:59;;;;;;;1.67;1.53;;;;;;;;;;5073396;28;20448;-84
2021/06/20 12:12:26;;;;;;;1.40;1.30;;;;;;;;;;5073478;28;20443;-84
2021/06/20 12:14:58;;;;;;;1.90;1.80;;;;;;;;;;5081311;28;20451;-83
2021/06/20 12:17:25;;;;;;;3.00;1.50;;;;;;;;;;5095659;28;20453;-82
2021/06/20 12:19:54;;;;;;;2.20;2.00;;;;;;;;;;5095707;28;20870;-84
2021/06/20 12:22:21;;;;;;;1.60;1.50;;;;;;;;;;5095745;28;20444;-80
2021/06/20 12:24:49;;;;;;;1.70;1.60;;;;;;;;;;5087408;28;20936;-80
2021/06/20 12:27:28;;;;;;;1.63;1.50;;;;;;;;;;5081487;28;20433;-83
2021/06/20 12:29:55;;;;;;;1.60;1.50;;;;;;;;;;5092199;28;20443;-82
2021/06/20 12:32:22;;;;;;;2.53;1.70;;;;;;;;;;5095083;28;20450;-82
2021/06/20 12:34:51;;;;;;;2.57;1.63;;;;;;;;;;5093330;28;20800;-84
2021/06/20 12:37:20;;;;;;;1.77;1.67;;;;;;;;;;5075718;28;21050;-81
2021/06/20 12:39:49;;;;;;;2.73;1.67;;;;;;;;;;5081763;28;20445;-81
2021/06/20 12:42:16;;;;;;;2.00;1.60;;;;;;;;;;5084272;28;20915;-81
2021/06/20 12:44:45;;;;;;;4.20;1.70;;;;;;;;;;5093080;28;20807;-80
2021/06/20 12:47:13;;;;;;;1.93;1.80;;;;;;;;;;5092944;28;20450;-82
2021/06/20 12:49:40;;;;;;;1.80;1.70;;;;;;;;;;5075534;28;20795;-82
2021/06/20 12:52:08;;;;;;;1.77;1.67;;;;;;;;;;5094064;28;20487;-81
2021/06/20 13:06:44;;;;;;;2.40;1.80;;;;;;;;;;4968025;28;20883;-90
2021/06/20 13:12:23;;;;;;;1.70;1.60;;;;;;;;;;5010167;28;20452;-92
2021/06/20 13:14:51;;;;;;;2.37;1.73;;;;;;;;;;5031285;28;20505;-87
2021/06/20 13:17:18;;;;;;;2.63;1.80;;;;;;;;;;5093197;28;20479;-89
2021/06/20 13:19:45;;;;;;;2.63;1.73;;;;;;;;;;5093791;28;20523;-91
2021/06/20 13:22:21;;;;;;;2.10;1.80;;;;;;;;;;5094256;28;20448;-91
2021/06/20 13:24:48;;;;;;;2.03;1.83;;;;;;;;;;5079025;28;20439;-88
2021/06/20 13:27:16;;;;;;;1.90;1.70;;;;;;;;;;5085631;28;20436;-88
2021/06/20 13:29:46;;;;;;;2.30;2.00;;;;;;;;;;5091215;28;20471;-88
2021/06/20 13:32:13;;;;;;;3.63;1.73;;;;;;;;;;5091299;28;20482;-88
2021/06/20 13:34:47;;;;;;;2.27;1.60;;;;;;;;;;5088690;28;20450;-91
2021/06/20 13:37:15;;;;;;;1.87;1.77;;;;;;;;;;5088969;28;20967;-90
2021/06/20 13:39:43;;;;;;;2.63;1.60;;;;;;;;;;5093154;28;20478;-91
2021/06/20 13:50:28;;;;;;;1.70;1.60;;;;;;;;;;5197424;22;20491;-83
2021/06/20 13:53:00;;;;;;;2.60;1.90;;;;;;;;;;5047978;28;20447;-88
2021/06/20 13:55:32;;;;;;;1.73;1.47;;;;;;;;;;5030292;28;20553;-89
2021/06/20 14:01:16;;;;;;;3.10;2.13;;;;;;;;;;4954254;28;20438;-91
2021/06/20 14:03:46;;;;;;;2.00;1.80;;;;;;;;;;5048969;28;20540;-90
2021/06/20 14:06:43;;;;;;;2.70;1.80;;;;;;;;;;5050371;28;20487;-94
2021/06/20 14:09:12;;;;;;;2.00;1.90;;;;;;;;;;5005983;28;20446;-83
2021/06/20 14:11:39;;;;;;;2.10;1.70;;;;;;;;;;5031982;28;20450;-83
2021/06/20 14:14:07;;;;;;;1.93;1.83;;;;;;;;;;5050298;28;20824;-81
2021/06/20 14:16:34;;;;;;;2.13;1.77;;;;;;;;;;5030827;28;20472;-83
2021/06/20 14:19:01;;;;;;;1.70;1.60;;;;;;;;;;5050058;28;20979;-82
2021/06/20 14:21:28;;;;;;;2.10;1.60;;;;;;;;;;5051022;28;20441;-82
2021/06/20 14:23:56;;;;;;;4.07;2.53;;;;;;;;;;5051106;28;20680;-83
2021/06/20 14:26:24;;;;;;;3.73;2.00;;;;;;;;;;5051133;28;20488;-83
2021/06/20 14:28:51;;;;;;;2.10;1.83;;;;;;;;;;5052849;28;20437;-82
2021/06/20 14:31:18;;;;;;;1.90;1.80;;;;;;;;;;5052827;28;20456;-83
2021/06/20 14:33:46;;;;;;;1.80;1.70;;;;;;;;;;5051039;28;20452;-83
2021/06/20 14:36:15;;;;;;;1.70;1.60;;;;;;;;;;5048393;28;20543;-83
2021/06/20 14:38:43;;;;;;;1.83;1.70;;;;;;;;;;5049443;28;20661;-83
2021/06/20 14:41:10;;;;;;;2.97;2.30;;;;;;;;;;5050071;28;20735;-83
2021/06/20 14:43:38;;;;;;;2.93;1.97;;;;;;;;;;5050613;28;20443;-84
2021/06/20 14:46:06;;;;;;;5.43;4.13;;;;;;;;;;5050025;28;20583;-81
2021/06/20 14:48:34;;;;;;;4.80;3.10;;;;;;;;;;5052561;28;20444;-84
2021/06/20 14:51:01;;;;;;;3.80;2.40;;;;;;;;;;5052736;28;20448;-85
2021/06/20 14:53:28;;;;;;;2.90;2.10;;;;;;;;;;5052684;28;20448;-82
2021/06/20 14:55:57;;;;;;;2.43;2.23;;;;;;;;;;5051345;28;20463;-83
2021/06/20 14:58:24;;;;;;;2.70;2.07;;;;;;;;;;5047846;28;20976;-83
2021/06/20 15:00:52;;;;;;;2.50;1.93;;;;;;;;;;5048766;28;20874;-87
2021/06/20 15:03:20;;;;;;;2.70;1.90;;;;;;;;;;5049832;28;20448;-84
2021/06/20 15:05:47;;;;;;;2.20;2.00;;;;;;;;;;5049670;28;20838;-83
2021/06/20 15:08:14;;;;;;;2.60;2.20;;;;;;;;;;5049682;28;20436;-85
2021/06/20 15:10:42;;;;;;;2.00;1.80;;;;;;;;;;5050924;28;20622;-85
2021/06/20 15:13:09;;;;;;;1.97;1.87;;;;;;;;;;5051549;28;20998;-83
2021/06/20 15:15:36;;;;;;;1.97;1.87;;;;;;;;;;5050445;28;20527;-83
2021/06/20 15:18:05;;;;;;;2.03;1.93;;;;;;;;;;5050725;28;20930;-83
2021/06/20 15:20:32;;;;;;;2.20;2.00;;;;;;;;;;5047984;28;20434;-83